Overview Statistics Trail Chart Weather Telemetry Raw packets
 

This is the latest recevied weather packets stored in our database for station/object R8AHC-W2. If no packets are shown the sender has not sent any weather packets the latest 10 day(s).

<< 1 2 3 4 5 >>
Time Temp. Humidity Pressure Rain* Wind** Luminosity Snow
1778108222 7.78° C 52% 1011 hPa - 3.58 m/s, 161° - -
1778104622 8.89° C 52% 1011 hPa - 3.58 m/s, 161° - -
1778101022 10° C 52% 1011 hPa - 3.58 m/s, 161° - -
1778097422 11.11° C 52% 1011 hPa - 3.58 m/s, 161° - -
1778093822 12.22° C 52% 1012 hPa - 3.58 m/s, 161° - -
1778090222 13.33° C 52% 1012 hPa - 3.58 m/s, 161° - -
1778086622 14.44° C 52% 1012 hPa - 3.58 m/s, 161° - -
1778083021 15.56° C 52% 1012 hPa - 3.58 m/s, 161° - -
1778079422 16.67° C 52% 1012 hPa - 3.58 m/s, 161° - -
1778075822 17.78° C 52% 1012 hPa - 3.58 m/s, 161° - -
1778068622 21.11° C 37% 1012 hPa - 4.02 m/s, 172° - -
1778065022 18.33° C 35% 1011 hPa - 2.24 m/s, 200° - -
1778061422 19.44° C 35% 1012 hPa - 2.24 m/s, 200° - -
1778057822 20.56° C 35% 1012 hPa - 2.24 m/s, 200° - -
1778054222 21.67° C 35% 1012 hPa - 2.24 m/s, 200° - -
1778050623 16.67° C 41% 1012 hPa - 2.68 m/s, 212° - -
1778047022 17.78° C 41% 1013 hPa - 2.68 m/s, 212° - -
1778043422 18.89° C 41% 1013 hPa - 2.68 m/s, 212° - -
1778039822 13.89° C 59% 1013 hPa - 2.24 m/s, 201° - -
1778036222 15° C 59% 1014 hPa - 2.24 m/s, 201° - -
1778032622 8.89° C 74% 1014 hPa - 1.79 m/s, 200° - -
1778029022 10° C 74% 1015 hPa - 1.79 m/s, 200° - -
1778025422 5.56° C 73% 1015 hPa - 1.34 m/s, 236° - -
1778021823 6.67° C 73% 1015 hPa - 1.34 m/s, 236° - -
1778018221 7.78° C 73% 1014 hPa - 1.34 m/s, 236° - -

* Rain since midnight (hover to see other rain measurements)
** Current wind speed in m/s (hover to see current wind gust speed)